createdAt,value
2022-10-17T00:02:01.267Z,26.00
2022-10-17T00:04:27.851Z,30.50
2022-10-17T00:06:54.891Z,38.80
2022-10-17T00:09:21.358Z,31.30
2022-10-17T00:11:47.914Z,29.30
2022-10-17T00:14:14.376Z,25.70
2022-10-17T00:16:40.925Z,29.40
2022-10-17T00:19:07.469Z,28.50
2022-10-17T00:21:34.426Z,24.30
2022-10-17T00:24:01.695Z,30.20
2022-10-17T00:26:28.390Z,28.30
2022-10-17T00:28:55.375Z,31.60
2022-10-17T00:31:23.995Z,32.50
2022-10-17T00:33:51.737Z,33.20
2022-10-17T00:36:24.633Z,33.00
2022-10-17T00:38:54.040Z,29.50
2022-10-17T00:41:23.998Z,32.80
2022-10-17T00:43:55.575Z,30.80
2022-10-17T00:46:23.597Z,31.70
2022-10-17T00:48:52.918Z,29.10
2022-10-17T00:51:24.052Z,27.10
2022-10-17T00:53:51.208Z,30.00
2022-10-17T00:56:21.032Z,27.40
2022-10-17T00:58:48.181Z,29.00
2022-10-17T01:01:15.364Z,29.90
2022-10-17T01:03:42.042Z,28.20
2022-10-17T01:06:08.626Z,28.60
2022-10-17T01:08:35.468Z,28.70
2022-10-17T01:11:28.571Z,26.80
2022-10-17T01:14:09.206Z,32.60
2022-10-17T01:17:14.712Z,29.40
2022-10-17T01:20:10.038Z,28.20
2022-10-17T01:22:45.916Z,30.70
2022-10-17T01:25:57.351Z,29.20
2022-10-17T01:28:26.573Z,34.70
2022-10-17T01:31:04.851Z,32.60
2022-10-17T01:33:37.015Z,35.50
2022-10-17T01:36:42.167Z,31.10
2022-10-17T01:39:47.891Z,33.20
2022-10-17T01:42:34.132Z,32.10
2022-10-17T01:45:03.619Z,33.00
2022-10-17T01:47:33.663Z,31.70
2022-10-17T01:50:10.750Z,33.20
2022-10-17T01:52:43.861Z,32.70
2022-10-17T01:55:17.354Z,29.20
2022-10-17T01:57:51.625Z,28.90
2022-10-17T02:00:22.267Z,27.70
2022-10-17T02:02:53.050Z,19.80
2022-10-17T02:05:24.913Z,30.30
2022-10-17T02:07:51.451Z,28.70
2022-10-17T02:10:32.646Z,31.00
2022-10-17T02:13:15.255Z,29.40
2022-10-17T02:16:00.197Z,33.60
2022-10-17T02:18:46.944Z,30.30
2022-10-17T02:21:18.986Z,28.80
2022-10-17T02:24:18.394Z,28.40
2022-10-17T02:26:56.536Z,29.20
2022-10-17T02:29:30.867Z,32.40
2022-10-17T02:32:06.879Z,28.60
2022-10-17T02:35:03.772Z,31.40
2022-10-17T02:37:32.055Z,32.30
2022-10-17T02:40:00.924Z,27.60
2022-10-17T02:42:29.578Z,30.40
2022-10-17T02:45:00.431Z,30.90
2022-10-17T02:47:49.917Z,32.50
2022-10-17T02:50:16.708Z,30.40
2022-10-17T02:52:52.978Z,37.50
2022-10-17T02:55:31.807Z,30.60
2022-10-17T02:58:08.605Z,32.30
2022-10-17T03:00:35.540Z,33.90
2022-10-17T03:03:01.932Z,33.80
2022-10-17T03:05:29.750Z,38.10
2022-10-17T03:07:57.211Z,35.70
2022-10-17T03:10:23.749Z,34.70
2022-10-17T03:12:50.288Z,33.80
2022-10-17T03:15:16.844Z,32.40
2022-10-17T03:17:43.364Z,27.60
2022-10-17T03:20:10.432Z,27.90
2022-10-17T03:22:37.164Z,28.70
2022-10-17T03:25:03.804Z,32.20
2022-10-17T03:27:30.566Z,28.60
2022-10-17T03:29:57.808Z,32.70
2022-10-17T03:32:24.351Z,36.00
2022-10-17T03:34:50.896Z,31.00
2022-10-17T03:37:17.369Z,30.50
2022-10-17T03:39:43.873Z,32.40
2022-10-17T03:42:10.302Z,33.80
2022-10-17T03:44:36.849Z,30.50
2022-10-17T03:47:03.388Z,32.70
2022-10-17T03:49:29.929Z,32.30
2022-10-17T03:51:56.471Z,34.60
2022-10-17T03:54:23.012Z,32.80
2022-10-17T03:56:49.632Z,32.60
2022-10-17T03:59:16.843Z,34.90
2022-10-17T04:01:43.867Z,33.20
2022-10-17T04:04:10.817Z,40.80
2022-10-17T04:06:38.478Z,41.20
2022-10-17T04:09:06.684Z,38.70
2022-10-17T04:11:33.621Z,38.30
2022-10-17T04:14:00.246Z,44.50
2022-10-17T04:16:27.408Z,38.80
2022-10-17T04:18:59.086Z,40.40
2022-10-17T04:21:27.395Z,40.60
2022-10-17T04:23:58.619Z,37.40
2022-10-17T04:26:25.980Z,36.10
2022-10-17T04:28:53.168Z,36.20
2022-10-17T04:31:19.781Z,34.70
2022-10-17T04:33:50.798Z,37.00
2022-10-17T04:36:19.736Z,37.50
2022-10-17T04:38:47.055Z,35.50
2022-10-17T04:41:16.176Z,39.00
2022-10-17T04:43:45.599Z,41.80
2022-10-17T04:46:15.587Z,40.80
2022-10-17T04:48:42.378Z,37.00
2022-10-17T04:51:15.065Z,38.20
2022-10-17T04:53:43.648Z,38.40
2022-10-17T04:56:21.535Z,45.70
2022-10-17T04:58:48.954Z,37.50
2022-10-17T05:01:19.112Z,40.20
2022-10-17T05:03:46.756Z,39.00
2022-10-17T05:06:15.891Z,36.10
2022-10-17T05:08:42.623Z,43.00
2022-10-17T05:11:17.668Z,37.70
2022-10-17T05:13:44.289Z,39.30
2022-10-17T05:16:10.722Z,43.10
2022-10-17T05:18:37.269Z,37.70
2022-10-17T05:21:04.425Z,38.30
2022-10-17T05:23:30.954Z,39.70
2022-10-17T05:25:57.490Z,40.80
2022-10-17T05:28:24.434Z,43.00
2022-10-17T05:30:51.020Z,38.90
2022-10-17T05:33:17.845Z,40.20
2022-10-17T05:35:44.287Z,42.10
2022-10-17T05:38:10.804Z,40.90
2022-10-17T05:40:37.444Z,36.10
2022-10-17T05:43:03.921Z,36.90
2022-10-17T05:45:30.419Z,34.70
2022-10-17T05:47:57.265Z,32.90
2022-10-17T05:50:23.806Z,28.50
2022-10-17T05:52:53.596Z,30.90
2022-10-17T05:55:20.164Z,25.40
2022-10-17T05:57:46.705Z,18.70
2022-10-17T06:00:13.967Z,21.10
2022-10-17T06:02:40.435Z,18.60
2022-10-17T06:05:07.454Z,16.50
2022-10-17T06:07:33.997Z,19.50
2022-10-17T06:10:00.541Z,17.50
2022-10-17T06:12:27.315Z,16.40
2022-10-17T06:14:54.235Z,14.20
2022-10-17T06:17:21.079Z,15.50
2022-10-17T06:19:47.621Z,17.10
2022-10-17T06:22:14.421Z,20.60
2022-10-17T06:24:41.371Z,18.60
2022-10-17T06:27:11.707Z,17.90
2022-10-17T06:29:38.594Z,16.30
2022-10-17T06:32:06.906Z,20.00
2022-10-17T06:34:35.269Z,19.60
2022-10-17T06:37:01.929Z,16.00
2022-10-17T06:39:28.453Z,17.10
2022-10-17T06:41:55.029Z,21.70
2022-10-17T06:44:21.537Z,14.30
2022-10-17T06:46:48.000Z,13.20
2022-10-17T06:49:14.514Z,20.20
2022-10-17T06:51:41.056Z,20.10
2022-10-17T06:54:07.527Z,15.90
2022-10-17T06:56:34.139Z,16.70
2022-10-17T06:59:00.672Z,14.70
2022-10-17T07:01:27.212Z,16.20
2022-10-17T07:03:53.649Z,18.80
2022-10-17T07:06:20.494Z,19.00
2022-10-17T07:08:47.035Z,22.00
2022-10-17T07:11:16.471Z,25.00
2022-10-17T07:13:43.905Z,18.40
2022-10-17T07:16:11.988Z,20.30
2022-10-17T07:18:38.760Z,19.80
2022-10-17T07:21:05.667Z,20.10
2022-10-17T07:23:32.521Z,22.40
2022-10-17T07:26:04.496Z,20.60
2022-10-17T07:28:31.054Z,18.90
2022-10-17T07:31:06.731Z,17.20
2022-10-17T07:33:33.386Z,19.80
2022-10-17T07:36:00.793Z,19.40
2022-10-17T07:38:30.919Z,22.30
2022-10-17T07:40:59.782Z,15.70
2022-10-17T07:43:27.565Z,16.90
2022-10-17T07:45:54.845Z,14.50
2022-10-17T07:48:23.219Z,19.50
2022-10-17T07:50:49.864Z,16.90
2022-10-17T07:53:16.916Z,16.60
2022-10-17T07:55:43.879Z,24.40
2022-10-17T07:58:10.625Z,14.80
2022-10-17T08:00:37.771Z,22.00
2022-10-17T08:03:04.703Z,15.50
2022-10-17T08:05:32.290Z,15.50
2022-10-17T08:07:59.047Z,15.00
2022-10-17T08:10:25.756Z,13.90
2022-10-17T08:12:52.189Z,22.80
2022-10-17T08:15:18.730Z,16.00
2022-10-17T08:17:45.231Z,15.00
2022-10-17T08:20:12.121Z,17.70
2022-10-17T08:22:38.807Z,16.70
2022-10-17T08:25:05.882Z,11.70
2022-10-17T08:27:36.209Z,14.50
2022-10-17T08:30:03.605Z,13.30
2022-10-17T08:32:30.365Z,14.80
2022-10-17T08:34:57.094Z,12.90
2022-10-17T08:37:23.752Z,13.30
2022-10-17T08:39:50.233Z,12.60
2022-10-17T08:42:50.400Z,11.00
2022-10-17T08:45:21.544Z,17.80
2022-10-17T08:47:54.533Z,12.40
2022-10-17T08:50:32.852Z,15.40
2022-10-17T08:53:11.610Z,13.10
2022-10-17T08:55:46.536Z,14.30
2022-10-17T08:58:15.002Z,11.60
2022-10-17T09:00:48.100Z,14.20
2022-10-17T09:03:30.269Z,14.50
2022-10-17T09:06:05.864Z,12.50
2022-10-17T09:08:38.333Z,13.20
2022-10-17T09:11:26.357Z,15.00
2022-10-17T09:14:19.401Z,13.60
2022-10-17T09:17:01.974Z,11.40
2022-10-17T09:19:39.063Z,12.00
2022-10-17T09:22:22.904Z,11.90
2022-10-17T09:24:54.240Z,10.60
2022-10-17T09:27:48.634Z,9.90
2022-10-17T09:30:51.562Z,9.20
2022-10-17T09:33:42.215Z,10.40
2022-10-17T09:36:20.442Z,11.10
2022-10-17T09:38:52.109Z,15.80
2022-10-17T09:41:44.256Z,16.10
2022-10-17T09:44:25.397Z,12.60
2022-10-17T09:47:23.330Z,14.50
2022-10-17T09:49:50.666Z,15.70
2022-10-17T09:52:22.339Z,18.20
2022-10-17T09:54:52.962Z,12.40
2022-10-17T09:57:21.502Z,10.10
2022-10-17T09:59:57.760Z,10.50
2022-10-17T10:02:26.110Z,12.00
2022-10-17T10:05:17.116Z,11.80
2022-10-17T10:08:00.961Z,10.90
2022-10-17T10:10:29.305Z,10.10
2022-10-17T10:13:15.390Z,11.90
2022-10-17T10:15:44.171Z,8.60
2022-10-17T10:18:26.151Z,10.80
2022-10-17T10:21:14.319Z,11.20
2022-10-17T10:23:43.909Z,11.70
2022-10-17T10:26:25.997Z,10.80
2022-10-17T10:28:57.017Z,13.70
2022-10-17T10:31:33.366Z,11.90
2022-10-17T10:34:03.039Z,10.50
2022-10-17T10:36:49.016Z,10.20
2022-10-17T10:39:31.833Z,9.70
2022-10-17T10:41:59.966Z,10.10
2022-10-17T10:44:29.498Z,8.20
2022-10-17T10:47:21.326Z,11.20
2022-10-17T10:49:50.369Z,11.20
2022-10-17T10:52:50.894Z,9.70
2022-10-17T10:55:26.445Z,12.10
2022-10-17T10:57:58.421Z,10.70
2022-10-17T11:00:28.713Z,11.70
2022-10-17T11:03:08.453Z,15.10
2022-10-17T11:05:48.452Z,11.10
2022-10-17T11:08:31.123Z,11.90
2022-10-17T11:11:03.664Z,13.70
2022-10-17T11:14:11.739Z,11.70
2022-10-17T11:17:04.523Z,11.00
2022-10-17T11:19:46.776Z,11.70
2022-10-17T11:22:26.667Z,11.60
2022-10-17T11:25:05.407Z,11.90
2022-10-17T11:27:34.303Z,10.40
2022-10-17T11:30:01.668Z,12.40
2022-10-17T11:32:36.907Z,11.40
2022-10-17T11:35:08.126Z,9.90
2022-10-17T11:37:41.033Z,9.30
2022-10-17T11:40:27.361Z,9.40
2022-10-17T11:43:03.924Z,12.10
2022-10-17T11:45:42.754Z,9.50
2022-10-17T11:48:17.688Z,8.20
2022-10-17T11:54:15.113Z,11.30
2022-10-17T11:57:28.370Z,8.80
2022-10-17T12:00:16.362Z,9.50
2022-10-17T12:02:53.449Z,9.70
2022-10-17T12:05:43.443Z,9.20
2022-10-17T12:08:37.196Z,9.30
2022-10-17T12:11:11.237Z,12.10
2022-10-17T12:13:37.715Z,11.60
2022-10-17T12:16:19.468Z,9.80
2022-10-17T12:19:10.588Z,10.90
2022-10-17T12:22:06.923Z,10.60
2022-10-17T12:24:43.312Z,9.50
2022-10-17T12:27:38.208Z,10.10
2022-10-17T12:30:24.438Z,10.50
2022-10-17T12:33:08.536Z,10.00
2022-10-17T12:35:37.276Z,10.00
2022-10-17T12:38:17.790Z,9.40
2022-10-17T12:43:15.546Z,10.80
2022-10-17T12:45:58.116Z,10.80
2022-10-17T12:48:33.659Z,9.60
2022-10-17T12:53:57.160Z,6.60
2022-10-17T12:56:39.569Z,10.80
2022-10-17T12:59:21.267Z,7.80
2022-10-17T13:01:52.856Z,9.90
2022-10-17T13:04:20.319Z,9.30
2022-10-17T13:06:51.141Z,9.00
2022-10-17T13:09:37.562Z,9.10
2022-10-17T13:12:12.188Z,9.10
2022-10-17T13:14:42.319Z,8.60
2022-10-17T13:17:29.924Z,7.00
2022-10-17T13:19:57.178Z,11.60
2022-10-17T13:22:30.521Z,9.40
2022-10-17T13:25:13.939Z,10.10
2022-10-17T13:27:40.394Z,8.00
2022-10-17T13:30:32.142Z,8.80
2022-10-17T13:33:00.279Z,9.70
2022-10-17T13:38:28.650Z,10.30
2022-10-17T13:41:02.005Z,10.20
2022-10-17T13:43:38.033Z,9.80
2022-10-17T13:46:19.162Z,9.40
2022-10-17T13:48:51.586Z,9.90
2022-10-17T13:51:18.170Z,6.70
2022-10-17T13:53:44.666Z,9.20
2022-10-17T13:56:29.531Z,8.10
2022-10-17T13:59:00.002Z,9.90
2022-10-17T14:01:29.368Z,9.30
2022-10-17T14:04:07.767Z,10.60
2022-10-17T14:06:45.039Z,9.40
2022-10-17T14:09:23.513Z,8.00
2022-10-17T14:11:58.337Z,8.20
2022-10-17T14:14:26.418Z,14.80
2022-10-17T14:16:53.462Z,10.90
2022-10-17T14:19:33.414Z,10.70
2022-10-17T14:22:18.810Z,13.80
2022-10-17T14:24:45.847Z,28.60
2022-10-17T14:27:32.335Z,29.70
2022-10-17T14:30:01.025Z,16.00
2022-10-17T14:35:30.274Z,14.00
2022-10-17T14:37:58.870Z,16.60
2022-10-17T14:40:27.542Z,11.80
2022-10-17T14:42:58.195Z,10.20
2022-10-17T14:45:31.557Z,11.00
2022-10-17T14:48:06.521Z,12.10
2022-10-17T14:50:33.513Z,13.30
2022-10-17T14:53:12.212Z,12.00
2022-10-17T14:55:40.977Z,9.90
2022-10-17T14:58:25.234Z,16.10
2022-10-17T15:00:51.878Z,14.80
2022-10-17T15:03:18.490Z,15.00
2022-10-17T15:05:49.901Z,17.00
2022-10-17T15:08:18.852Z,14.40
2022-10-17T15:10:46.642Z,15.60
2022-10-17T15:13:27.556Z,13.80
2022-10-17T15:15:55.459Z,18.10
2022-10-17T15:18:21.947Z,15.70
2022-10-17T15:20:55.244Z,15.50
2022-10-17T15:23:31.287Z,18.60
2022-10-17T15:25:57.829Z,19.10
2022-10-17T15:28:24.485Z,16.70
2022-10-17T15:30:51.089Z,22.70
2022-10-17T15:33:17.545Z,19.90
2022-10-17T15:35:44.837Z,20.10
2022-10-17T15:38:17.011Z,20.80
2022-10-17T15:40:43.444Z,32.30
2022-10-17T15:43:10.049Z,22.70
2022-10-17T15:45:36.621Z,28.50
2022-10-17T15:48:06.925Z,32.10
2022-10-17T15:50:33.458Z,52.30
2022-10-17T15:53:06.055Z,43.50
2022-10-17T15:55:32.681Z,41.50
2022-10-17T15:57:59.219Z,30.30
2022-10-17T16:00:25.956Z,33.10
2022-10-17T16:02:52.601Z,34.10
2022-10-17T16:05:24.581Z,29.40
2022-10-17T16:07:54.845Z,32.90
2022-10-17T16:10:22.482Z,37.30
2022-10-17T16:12:49.613Z,31.00
2022-10-17T16:15:19.857Z,34.20
2022-10-17T16:17:46.310Z,36.30
2022-10-17T16:20:13.453Z,34.90
2022-10-17T16:22:41.658Z,32.40
2022-10-17T16:25:18.058Z,34.30
2022-10-17T16:27:45.071Z,31.10
2022-10-17T16:30:12.334Z,40.40
2022-10-17T16:32:38.981Z,36.90
2022-10-17T16:35:07.237Z,50.90
2022-10-17T16:37:33.935Z,54.70
2022-10-17T16:40:00.429Z,95.90
2022-10-17T16:42:27.044Z,109.80
2022-10-17T16:44:53.862Z,80.90
2022-10-17T16:47:20.396Z,73.80
2022-10-17T16:49:47.121Z,57.30
2022-10-17T16:52:13.642Z,52.20
2022-10-17T16:54:40.165Z,57.00
2022-10-17T16:57:06.958Z,62.10
2022-10-17T16:59:33.500Z,101.10
2022-10-17T17:02:00.017Z,68.50
2022-10-17T17:04:26.680Z,76.00
2022-10-17T17:06:53.336Z,61.90
2022-10-17T17:09:19.968Z,60.20
2022-10-17T17:11:46.737Z,72.30
2022-10-17T17:14:14.063Z,88.20
2022-10-17T17:16:40.735Z,104.50
2022-10-17T17:19:10.490Z,110.70
2022-10-17T17:21:37.266Z,72.10
2022-10-17T17:24:05.065Z,93.90
2022-10-17T17:26:34.218Z,114.60
2022-10-17T17:29:00.806Z,77.90
2022-10-17T17:31:30.503Z,81.80
2022-10-17T17:33:57.594Z,80.60
2022-10-17T17:36:34.505Z,78.00
2022-10-17T17:39:02.610Z,87.20
2022-10-17T17:41:29.375Z,112.80
2022-10-17T17:43:56.713Z,67.50
2022-10-17T17:46:24.689Z,70.20
2022-10-17T17:48:52.865Z,66.80
2022-10-17T17:51:24.302Z,46.70
2022-10-17T17:53:54.135Z,51.10
2022-10-17T17:56:27.358Z,45.10
2022-10-17T17:58:56.945Z,55.10
2022-10-17T18:01:25.465Z,47.70
2022-10-17T18:03:53.224Z,49.10
2022-10-17T18:06:21.577Z,46.70
2022-10-17T18:08:50.787Z,64.10
2022-10-17T18:11:19.729Z,73.10
2022-10-17T18:16:19.013Z,48.20
2022-10-17T18:18:45.647Z,47.30
2022-10-17T18:21:14.030Z,51.20
2022-10-17T18:23:41.927Z,47.00
2022-10-17T18:26:09.369Z,43.80
2022-10-17T18:28:38.105Z,41.20
2022-10-17T18:31:11.165Z,40.10
2022-10-17T18:33:38.495Z,49.00
2022-10-17T18:36:07.738Z,46.80
2022-10-17T18:38:34.289Z,46.50
2022-10-17T18:41:04.996Z,48.30
2022-10-17T18:43:34.177Z,46.90
2022-10-17T18:46:08.534Z,53.60
2022-10-17T18:48:40.788Z,47.70
2022-10-17T18:51:07.918Z,49.50
2022-10-17T18:53:34.991Z,46.50
2022-10-17T18:56:01.492Z,52.00
2022-10-17T18:58:28.066Z,46.80
2022-10-17T19:00:54.537Z,48.90
2022-10-17T19:03:21.268Z,46.90
2022-10-17T19:05:47.705Z,48.60
2022-10-17T19:08:15.400Z,44.90
2022-10-17T19:10:42.679Z,43.00
2022-10-17T19:13:10.788Z,41.30
2022-10-17T19:15:40.808Z,43.90
2022-10-17T19:18:07.265Z,44.10
2022-10-17T19:20:33.784Z,44.20
2022-10-17T19:23:00.618Z,46.00
2022-10-17T19:25:27.157Z,43.60
2022-10-17T19:27:53.710Z,40.60
2022-10-17T19:30:20.254Z,44.20
2022-10-17T19:32:46.671Z,44.30
2022-10-17T19:35:13.211Z,54.10
2022-10-17T19:37:39.775Z,61.40
2022-10-17T19:40:07.138Z,67.70
2022-10-17T19:42:34.979Z,69.60
2022-10-17T19:45:01.845Z,49.90
2022-10-17T19:47:28.900Z,48.70
2022-10-17T19:49:55.496Z,53.40
2022-10-17T19:52:23.726Z,51.90
2022-10-17T19:54:50.227Z,58.60
2022-10-17T19:57:16.801Z,52.00
2022-10-17T19:59:43.242Z,54.80
2022-10-17T20:02:12.385Z,52.60
2022-10-17T20:04:49.558Z,52.30
2022-10-17T20:07:25.491Z,55.00
2022-10-17T20:09:51.931Z,55.00
2022-10-17T20:12:18.369Z,50.60
2022-10-17T20:14:44.783Z,49.40
2022-10-17T20:17:11.343Z,51.90
2022-10-17T20:19:37.790Z,48.80
2022-10-17T20:22:04.324Z,44.30
2022-10-17T20:24:30.864Z,48.70
2022-10-17T20:26:57.300Z,51.90
2022-10-17T20:29:23.847Z,47.10
2022-10-17T20:31:51.100Z,52.50
2022-10-17T20:34:18.895Z,56.60
2022-10-17T20:36:46.231Z,53.70
2022-10-17T20:39:15.540Z,57.70
2022-10-17T20:41:43.002Z,62.10
2022-10-17T20:44:10.115Z,63.60
2022-10-17T20:46:39.743Z,60.80
2022-10-17T20:49:15.235Z,63.80
2022-10-17T20:51:42.149Z,63.00
2022-10-17T20:54:09.120Z,56.70
2022-10-17T20:56:35.959Z,62.90
2022-10-17T20:59:10.360Z,61.20
2022-10-17T21:01:36.899Z,60.30
2022-10-17T21:04:27.159Z,58.50
2022-10-17T21:06:50.761Z,61.90
2022-10-17T21:09:17.943Z,51.20
2022-10-17T21:11:44.379Z,57.00
2022-10-17T21:14:11.790Z,133.80
2022-10-17T21:16:39.596Z,217.30
2022-10-17T21:19:06.274Z,133.40
2022-10-17T21:21:35.823Z,114.20
2022-10-17T21:24:08.140Z,68.80
2022-10-17T21:26:37.195Z,61.10
2022-10-17T21:29:04.606Z,60.60
2022-10-17T21:31:32.897Z,57.60
2022-10-17T21:34:01.776Z,52.30
2022-10-17T21:36:28.636Z,53.60
2022-10-17T21:38:56.628Z,59.50
2022-10-17T21:41:25.545Z,52.50
2022-10-17T21:43:58.165Z,49.60
2022-10-17T21:46:25.730Z,54.30
2022-10-17T21:48:52.902Z,53.80
2022-10-17T21:51:22.532Z,56.10
2022-10-17T21:53:50.114Z,49.90
2022-10-17T21:56:21.431Z,57.60
2022-10-17T21:58:49.054Z,45.90
2022-10-17T22:01:20.212Z,46.20
2022-10-17T22:03:50.059Z,48.30
2022-10-17T22:09:11.657Z,50.00
2022-10-17T22:11:38.351Z,48.80
2022-10-17T22:14:08.381Z,46.60
2022-10-17T22:16:34.978Z,49.90
2022-10-17T22:19:06.156Z,52.70
2022-10-17T22:21:35.252Z,51.10
2022-10-17T22:24:04.685Z,49.50
2022-10-17T22:26:33.069Z,43.70
2022-10-17T22:29:00.589Z,46.00
2022-10-17T22:31:27.187Z,49.10
2022-10-17T22:33:53.647Z,46.30
2022-10-17T22:36:20.361Z,51.90
2022-10-17T22:38:46.826Z,45.20
2022-10-17T22:41:13.540Z,48.70
2022-10-17T22:43:39.991Z,45.20
2022-10-17T22:46:07.443Z,47.60
2022-10-17T22:48:34.909Z,48.70
2022-10-17T22:51:02.473Z,48.30
2022-10-17T22:53:28.908Z,46.50
2022-10-17T22:56:17.097Z,43.90
2022-10-17T22:58:43.557Z,49.30
2022-10-17T23:01:14.610Z,46.40
2022-10-17T23:03:41.758Z,47.80
2022-10-17T23:06:08.247Z,46.20
2022-10-17T23:08:34.681Z,54.00
2022-10-17T23:11:01.332Z,48.50
2022-10-17T23:13:27.881Z,50.80
2022-10-17T23:15:56.358Z,54.70
2022-10-17T23:18:24.182Z,50.70
2022-10-17T23:20:51.623Z,49.10
2022-10-17T23:23:19.048Z,52.10
2022-10-17T23:25:45.995Z,45.40
2022-10-17T23:28:12.841Z,47.70
2022-10-17T23:30:39.992Z,49.80
2022-10-17T23:33:07.352Z,49.00
2022-10-17T23:35:35.445Z,49.30
2022-10-17T23:38:02.380Z,46.80
2022-10-17T23:40:29.224Z,49.10
2022-10-17T23:42:55.676Z,47.30
2022-10-17T23:45:22.250Z,48.10
2022-10-17T23:47:48.821Z,45.40
2022-10-17T23:50:15.509Z,46.40
2022-10-17T23:52:42.132Z,49.40
2022-10-17T23:55:09.595Z,48.50
2022-10-17T23:57:35.996Z,47.50
